createdAt,value
2017-12-30T00:01:22.954Z,3.65
2017-12-30T00:03:51.612Z,3.50
2017-12-30T00:06:17.449Z,8.57
2017-12-30T00:08:46.387Z,6.57
2017-12-30T00:11:12.205Z,8.02
2017-12-30T00:13:40.949Z,4.70
2017-12-30T00:16:06.794Z,8.88
2017-12-30T00:21:03.652Z,7.40
2017-12-30T00:23:29.495Z,2.27
2017-12-30T00:25:55.298Z,5.37
2017-12-30T00:28:21.160Z,8.83
2017-12-30T00:30:47.551Z,11.70
2017-12-30T00:33:13.393Z,11.75
2017-12-30T00:35:42.367Z,3.33
2017-12-30T00:38:08.189Z,8.15
2017-12-30T00:40:37.577Z,6.67
2017-12-30T00:43:03.439Z,9.23
2017-12-30T00:45:32.398Z,11.73
2017-12-30T00:47:58.196Z,9.23
2017-12-30T00:50:27.036Z,9.37
2017-12-30T00:52:52.886Z,8.32
2017-12-30T00:55:22.598Z,3.53
2017-12-30T00:57:48.419Z,12.35
2017-12-30T01:00:14.249Z,7.27
2017-12-30T01:02:40.040Z,8.50
2017-12-30T01:05:05.866Z,9.63
2017-12-30T01:07:33.661Z,8.97
2017-12-30T01:09:59.523Z,15.80
2017-12-30T01:12:28.613Z,15.90
2017-12-30T01:14:54.446Z,12.00
2017-12-30T01:17:23.901Z,21.53
2017-12-30T01:19:49.756Z,21.02
2017-12-30T01:22:18.940Z,13.57
2017-12-30T01:24:44.771Z,23.52
2017-12-30T01:27:12.824Z,17.20
2017-12-30T01:29:38.655Z,8.00
2017-12-30T01:32:07.562Z,10.37
2017-12-30T01:34:33.368Z,16.73
2017-12-30T01:36:59.233Z,12.10
2017-12-30T01:39:25.052Z,9.67
2017-12-30T01:41:50.870Z,10.70
2017-12-30T01:44:20.032Z,10.40
2017-12-30T01:46:45.827Z,5.80
2017-12-30T01:49:13.118Z,19.03
2017-12-30T01:51:38.959Z,16.95
2017-12-30T01:54:08.553Z,7.33
2017-12-30T01:56:34.384Z,10.88
2017-12-30T01:59:03.352Z,14.83
2017-12-30T02:01:29.222Z,7.72
2017-12-30T02:03:59.006Z,14.73
2017-12-30T02:06:24.828Z,6.75
2017-12-30T02:08:52.379Z,14.50
2017-12-30T02:11:18.277Z,27.23
2017-12-30T02:13:44.092Z,15.73
2017-12-30T02:16:10.119Z,8.63
2017-12-30T02:18:35.936Z,15.10
2017-12-30T02:21:05.025Z,9.53
2017-12-30T02:23:30.867Z,9.80
2017-12-30T02:26:00.019Z,14.93
2017-12-30T02:28:25.852Z,7.72
2017-12-30T02:30:53.525Z,8.57
2017-12-30T02:33:19.337Z,11.30
2017-12-30T02:35:48.642Z,7.67
2017-12-30T02:38:14.474Z,7.47
2017-12-30T02:40:44.173Z,8.57
2017-12-30T02:43:10.081Z,8.43
2017-12-30T02:45:37.481Z,4.60
2017-12-30T02:48:03.294Z,8.98
2017-12-30T02:50:29.141Z,11.90
2017-12-30T02:52:54.989Z,11.33
2017-12-30T02:55:20.850Z,10.83
2017-12-30T02:57:49.961Z,9.97
2017-12-30T03:00:15.861Z,9.38
2017-12-30T03:02:44.175Z,8.03
2017-12-30T03:05:10.099Z,9.18
2017-12-30T03:07:39.046Z,10.03
2017-12-30T03:10:04.884Z,15.40
2017-12-30T03:12:33.808Z,13.23
2017-12-30T03:14:59.654Z,10.60
2017-12-30T03:17:28.498Z,7.30
2017-12-30T03:19:54.308Z,8.38
2017-12-30T03:22:23.903Z,10.60
2017-12-30T03:24:49.712Z,25.23
2017-12-30T03:27:16.614Z,9.20
2017-12-30T03:29:42.420Z,13.40
2017-12-30T03:32:08.252Z,15.43
2017-12-30T03:34:34.072Z,9.27
2017-12-30T03:36:59.885Z,10.47
2017-12-30T03:39:29.379Z,20.00
2017-12-30T03:41:55.246Z,21.05
2017-12-30T03:44:24.979Z,17.50
2017-12-30T03:46:50.775Z,17.05
2017-12-30T03:49:18.611Z,13.60
2017-12-30T03:51:44.407Z,4.57
2017-12-30T03:54:14.622Z,11.00
2017-12-30T03:56:40.414Z,9.43
2017-12-30T03:59:07.940Z,7.23
2017-12-30T04:01:33.736Z,9.60
2017-12-30T04:03:59.555Z,7.60
2017-12-30T04:06:25.392Z,14.03
2017-12-30T04:08:51.233Z,9.40
2017-12-30T04:11:19.645Z,7.83
2017-12-30T04:13:45.458Z,5.07
2017-12-30T04:16:14.890Z,16.97
2017-12-30T04:18:40.701Z,11.52
2017-12-30T04:21:09.766Z,10.33
2017-12-30T04:23:35.569Z,15.07
2017-12-30T04:26:05.457Z,7.50
2017-12-30T04:28:31.290Z,19.80
2017-12-30T04:30:59.049Z,9.63
2017-12-30T04:33:24.837Z,22.98
2017-12-30T04:35:53.872Z,12.50
2017-12-30T04:38:19.684Z,7.28
2017-12-30T04:40:45.488Z,24.80
2017-12-30T04:43:11.307Z,19.07
2017-12-30T04:45:37.082Z,8.27
2017-12-30T04:48:04.790Z,9.63
2017-12-30T04:50:30.617Z,16.62
2017-12-30T04:52:59.490Z,17.33
2017-12-30T04:55:25.296Z,11.73
2017-12-30T04:57:54.119Z,7.43
2017-12-30T05:00:19.931Z,15.48
2017-12-30T05:02:49.256Z,6.87
2017-12-30T05:05:15.078Z,15.55
2017-12-30T05:07:43.995Z,12.60
2017-12-30T05:10:09.834Z,7.60
2017-12-30T05:12:39.702Z,7.23
2017-12-30T05:15:05.527Z,14.70
2017-12-30T05:17:31.345Z,3.73
2017-12-30T05:19:57.148Z,17.43
2017-12-30T05:22:23.006Z,17.97
2017-12-30T05:24:51.877Z,28.43
2017-12-30T05:27:17.733Z,11.55
2017-12-30T05:29:45.130Z,7.10
2017-12-30T05:32:10.954Z,3.87
2017-12-30T05:34:40.438Z,22.63
2017-12-30T05:37:06.301Z,17.05
2017-12-30T05:39:35.225Z,18.40
2017-12-30T05:42:01.054Z,8.95
2017-12-30T05:44:29.001Z,12.33
2017-12-30T05:46:54.856Z,9.73
2017-12-30T05:49:24.185Z,13.60
2017-12-30T05:51:50.060Z,8.43
2017-12-30T05:54:15.941Z,13.33
2017-12-30T05:56:41.737Z,10.57
2017-12-30T05:59:07.554Z,12.67
2017-12-30T06:01:37.270Z,30.87
2017-12-30T06:04:03.143Z,14.25
2017-12-30T06:06:30.714Z,16.80
2017-12-30T06:08:56.569Z,13.57
2017-12-30T06:11:25.908Z,8.40
2017-12-30T06:13:51.746Z,11.45
2017-12-30T06:16:19.741Z,5.33
2017-12-30T06:18:45.569Z,10.70
2017-12-30T06:21:14.726Z,8.23
2017-12-30T06:23:40.573Z,7.72
2017-12-30T06:26:09.223Z,8.57
2017-12-30T06:28:35.017Z,7.78
2017-12-30T06:31:00.859Z,8.20
2017-12-30T06:33:26.689Z,3.17
2017-12-30T06:35:52.531Z,3.13
2017-12-30T06:38:21.483Z,9.43
2017-12-30T06:40:47.278Z,8.32
2017-12-30T06:43:16.337Z,6.30
2017-12-30T06:45:42.205Z,7.43
2017-12-30T06:48:11.845Z,3.20
2017-12-30T06:50:37.669Z,5.70
2017-12-30T06:53:05.406Z,7.30
2017-12-30T06:55:31.220Z,7.32
2017-12-30T06:58:01.065Z,13.83
2017-12-30T07:00:26.880Z,4.05
2017-12-30T07:02:54.413Z,22.13
2017-12-30T07:05:20.258Z,6.97
2017-12-30T07:07:46.082Z,2.97
2017-12-30T07:10:11.930Z,4.50
2017-12-30T07:12:37.790Z,7.70
2017-12-30T07:15:07.445Z,5.53
2017-12-30T07:17:33.302Z,14.55
2017-12-30T07:20:00.951Z,16.70
2017-12-30T07:22:26.787Z,9.50
2017-12-30T07:24:59.463Z,14.00
2017-12-30T07:27:25.289Z,6.72
2017-12-30T07:29:51.089Z,2.10
2017-12-30T07:32:16.896Z,4.63
2017-12-30T07:34:46.431Z,8.10
2017-12-30T07:37:12.299Z,8.38
2017-12-30T07:39:39.840Z,7.37
2017-12-30T07:42:05.672Z,4.57
2017-12-30T07:44:31.492Z,4.13
2017-12-30T07:46:57.320Z,7.73
2017-12-30T07:49:23.167Z,3.93
2017-12-30T07:51:52.749Z,4.73
2017-12-30T07:54:18.528Z,1.95
2017-12-30T07:56:46.284Z,3.50
2017-12-30T07:59:12.106Z,3.20
2017-12-30T08:01:41.428Z,3.57
2017-12-30T08:04:07.312Z,4.97
2017-12-30T08:06:36.762Z,2.40
2017-12-30T08:09:02.625Z,2.90
2017-12-30T08:11:30.554Z,1.93
2017-12-30T08:13:56.384Z,3.45
2017-12-30T08:16:24.860Z,2.77
2017-12-30T08:18:50.732Z,2.80
2017-12-30T08:21:16.570Z,1.10
2017-12-30T08:23:42.394Z,1.63
2017-12-30T08:26:08.179Z,6.90
2017-12-30T08:28:37.596Z,1.00
2017-12-30T08:31:03.470Z,0.90
2017-12-30T08:33:33.174Z,1.73
2017-12-30T08:35:58.952Z,2.10
2017-12-30T08:38:27.965Z,2.23
2017-12-30T08:40:53.817Z,2.45
2017-12-30T08:43:21.279Z,1.20
2017-12-30T08:45:47.118Z,0.93
2017-12-30T08:48:16.225Z,3.07
2017-12-30T08:50:42.030Z,1.40
2017-12-30T08:53:11.467Z,1.93
2017-12-30T08:55:37.338Z,1.55
2017-12-30T08:58:03.166Z,0.90
2017-12-30T09:00:29.029Z,1.03
2017-12-30T09:02:54.903Z,1.27
2017-12-30T09:05:22.285Z,1.67
2017-12-30T09:07:48.170Z,0.80
2017-12-30T09:10:16.810Z,0.83
2017-12-30T09:12:42.645Z,1.55
2017-12-30T09:15:11.779Z,0.90
2017-12-30T09:17:37.655Z,2.65
2017-12-30T09:20:06.297Z,0.90
2017-12-30T09:22:32.093Z,0.70
2017-12-30T09:25:01.628Z,0.90
2017-12-30T09:27:27.468Z,0.70
2017-12-30T09:29:56.397Z,0.70
2017-12-30T09:32:22.195Z,1.02
2017-12-30T09:34:47.978Z,0.80
2017-12-30T09:37:13.848Z,1.17
2017-12-30T09:39:39.701Z,0.90
2017-12-30T09:42:07.238Z,1.50
2017-12-30T09:44:33.115Z,0.90
2017-12-30T09:49:29.807Z,0.80
2017-12-30T09:51:57.416Z,0.80
2017-12-30T09:54:23.211Z,1.00
2017-12-30T09:56:52.086Z,3.33
2017-12-30T09:59:17.956Z,0.80
2017-12-30T10:01:47.251Z,0.70
2017-12-30T10:04:13.117Z,0.70
2017-12-30T10:06:42.440Z,1.10
2017-12-30T10:09:08.297Z,1.00
2017-12-30T10:11:34.137Z,0.93
2017-12-30T10:13:59.960Z,1.27
2017-12-30T10:16:25.844Z,0.70
2017-12-30T10:18:53.268Z,1.20
2017-12-30T10:21:19.114Z,0.80
2017-12-30T10:23:47.803Z,0.80
2017-12-30T10:26:13.614Z,0.70
2017-12-30T10:28:42.402Z,0.90
2017-12-30T10:31:08.221Z,2.25
2017-12-30T10:33:37.538Z,5.73
2017-12-30T10:36:03.433Z,3.75
2017-12-30T10:38:33.150Z,1.00
2017-12-30T10:40:58.968Z,1.33
2017-12-30T10:43:26.743Z,1.00
2017-12-30T10:45:52.623Z,0.80
2017-12-30T10:48:18.455Z,1.80
2017-12-30T10:50:44.255Z,0.80
2017-12-30T10:53:10.097Z,0.80
2017-12-30T10:55:39.052Z,1.27
2017-12-30T10:58:04.870Z,0.80
2017-12-30T11:00:40.656Z,1.10
2017-12-30T11:03:06.458Z,1.45
2017-12-30T11:05:32.297Z,1.30
2017-12-30T11:07:58.132Z,0.80
2017-12-30T11:10:24.013Z,0.93
2017-12-30T11:12:49.850Z,1.57
2017-12-30T11:15:17.063Z,1.10
2017-12-30T11:17:42.908Z,0.90
2017-12-30T11:20:12.572Z,3.20
2017-12-30T11:22:38.397Z,1.25
2017-12-30T11:25:04.252Z,1.70
2017-12-30T11:27:30.106Z,1.70
2017-12-30T11:29:55.944Z,1.53
2017-12-30T11:32:23.548Z,1.83
2017-12-30T11:34:49.403Z,1.58
2017-12-30T11:37:18.075Z,3.00
2017-12-30T11:39:43.882Z,1.60
2017-12-30T11:42:13.336Z,1.67
2017-12-30T11:44:39.141Z,11.88
2017-12-30T11:47:08.890Z,5.97
2017-12-30T11:49:34.718Z,4.28
2017-12-30T11:52:02.494Z,2.40
2017-12-30T11:54:28.303Z,1.23
2017-12-30T11:56:58.098Z,1.73
2017-12-30T11:59:23.889Z,2.35
2017-12-30T12:01:49.714Z,5.33
2017-12-30T12:04:15.526Z,7.23
2017-12-30T12:06:41.329Z,3.20
2017-12-30T12:09:10.586Z,6.00
2017-12-30T12:11:36.445Z,4.00
2017-12-30T12:14:04.150Z,2.83
2017-12-30T12:16:29.921Z,12.52
2017-12-30T12:18:59.392Z,7.07
2017-12-30T12:21:25.179Z,4.28
2017-12-30T12:23:52.824Z,3.00
2017-12-30T12:26:18.603Z,2.50
2017-12-30T12:31:15.257Z,5.90
2017-12-30T12:33:42.990Z,3.83
2017-12-30T12:36:08.830Z,3.92
2017-12-30T12:38:34.695Z,2.00
2017-12-30T12:41:00.527Z,3.70
2017-12-30T12:43:26.369Z,2.27
2017-12-30T12:45:54.078Z,3.83
2017-12-30T12:48:19.934Z,6.82
2017-12-30T12:50:49.233Z,5.00
2017-12-30T12:53:15.052Z,4.18
2017-12-30T12:55:44.797Z,11.20
2017-12-30T12:58:10.587Z,5.55
2017-12-30T13:00:38.248Z,4.50
2017-12-30T13:03:04.080Z,2.12
2017-12-30T13:05:33.314Z,4.90
2017-12-30T13:07:59.225Z,5.93
2017-12-30T13:10:28.385Z,15.33
2017-12-30T13:12:54.246Z,12.13
2017-12-30T13:15:20.096Z,9.20
2017-12-30T13:17:45.909Z,6.77
2017-12-30T13:20:11.732Z,9.13
2017-12-30T13:22:39.723Z,4.80
2017-12-30T13:25:05.503Z,13.10
2017-12-30T13:27:34.976Z,6.50
2017-12-30T13:30:00.810Z,6.57
2017-12-30T13:32:29.761Z,8.87
2017-12-30T13:34:55.628Z,3.08
2017-12-30T13:37:23.274Z,6.33
2017-12-30T13:39:49.125Z,6.78
2017-12-30T13:42:15.692Z,3.17
2017-12-30T13:44:41.525Z,3.05
2017-12-30T13:47:07.338Z,8.30
2017-12-30T13:49:34.892Z,2.23
2017-12-30T13:52:00.739Z,6.60
2017-12-30T13:54:27.316Z,10.40
2017-12-30T13:56:53.115Z,4.25
2017-12-30T13:59:18.904Z,12.10
2017-12-30T14:01:48.232Z,5.70
2017-12-30T14:04:14.054Z,5.10
2017-12-30T14:06:41.803Z,4.00
2017-12-30T14:09:07.636Z,9.02
2017-12-30T14:11:36.860Z,3.90
2017-12-30T14:14:02.756Z,7.60
2017-12-30T14:16:30.929Z,3.83
2017-12-30T14:18:56.754Z,2.78
2017-12-30T14:23:53.391Z,3.12
2017-12-30T14:26:20.728Z,3.00
2017-12-30T14:28:46.540Z,4.18
2017-12-30T14:31:16.677Z,5.53
2017-12-30T14:33:42.469Z,5.53
2017-12-30T14:36:10.104Z,5.47
2017-12-30T14:38:35.941Z,3.28
2017-12-30T14:41:04.361Z,2.20
2017-12-30T14:43:30.240Z,1.60
2017-12-30T14:48:27.045Z,2.03
2017-12-30T14:50:55.906Z,3.20
2017-12-30T14:53:21.762Z,6.70
2017-12-30T14:55:49.334Z,8.27
2017-12-30T14:58:15.157Z,4.28
2017-12-30T15:00:44.646Z,3.13
2017-12-30T15:03:10.489Z,4.68
2017-12-30T15:05:36.316Z,7.40
2017-12-30T15:08:02.130Z,3.37
2017-12-30T15:10:27.958Z,5.70
2017-12-30T15:12:55.212Z,3.10
2017-12-30T15:15:21.015Z,9.02
2017-12-30T15:17:50.391Z,1.00
2017-12-30T15:20:16.222Z,4.45
2017-12-30T15:22:45.569Z,2.90
2017-12-30T15:25:11.405Z,2.75
2017-12-30T15:27:40.762Z,3.23
2017-12-30T15:30:06.633Z,3.30
2017-12-30T15:32:36.097Z,4.30
2017-12-30T15:35:01.933Z,2.80
2017-12-30T15:37:29.189Z,1.70
2017-12-30T15:39:55.038Z,1.80
2017-12-30T15:42:20.854Z,2.20
2017-12-30T15:44:46.675Z,2.27
2017-12-30T15:47:12.544Z,1.40
2017-12-30T15:49:41.788Z,1.93
2017-12-30T15:52:07.588Z,1.35
2017-12-30T15:54:35.185Z,4.20
2017-12-30T15:57:00.982Z,2.05
2017-12-30T15:59:27.574Z,1.67
2017-12-30T16:01:55.490Z,3.05
2017-12-30T16:06:52.201Z,2.60
2017-12-30T16:09:19.901Z,4.03
2017-12-30T16:11:45.776Z,3.40
2017-12-30T16:14:14.084Z,1.63
2017-12-30T16:16:39.880Z,2.70
2017-12-30T16:19:05.693Z,4.17
2017-12-30T16:21:31.521Z,4.70
2017-12-30T16:23:57.382Z,5.80
2017-12-30T16:26:27.147Z,7.13
2017-12-30T16:28:52.992Z,3.33
2017-12-30T16:31:21.685Z,7.33
2017-12-30T16:33:47.502Z,3.72
2017-12-30T16:36:16.666Z,4.30
2017-12-30T16:38:42.484Z,3.12
2017-12-30T16:41:10.213Z,6.27
2017-12-30T16:43:36.056Z,4.00
2017-12-30T16:46:05.401Z,2.23
2017-12-30T16:48:31.236Z,3.08
2017-12-30T16:51:00.509Z,4.40
2017-12-30T16:53:26.348Z,1.98
2017-12-30T16:55:52.209Z,4.77
2017-12-30T16:58:18.074Z,8.27
2017-12-30T17:00:43.917Z,5.10
2017-12-30T17:03:12.956Z,1.67
2017-12-30T17:05:38.785Z,2.62
2017-12-30T17:08:06.149Z,1.60
2017-12-30T17:10:32.013Z,1.95
2017-12-30T17:13:00.452Z,3.00
2017-12-30T17:15:26.272Z,3.70
2017-12-30T17:20:22.899Z,4.10
2017-12-30T17:22:51.797Z,7.43
2017-12-30T17:25:17.624Z,4.97
2017-12-30T17:27:46.457Z,2.83
2017-12-30T17:30:12.305Z,3.62
2017-12-30T17:32:38.133Z,4.27
2017-12-30T17:35:03.970Z,4.60
2017-12-30T17:37:29.790Z,2.50
2017-12-30T17:39:56.765Z,4.40
2017-12-30T17:42:22.621Z,6.18
2017-12-30T17:44:51.813Z,6.40
2017-12-30T17:47:17.665Z,6.70
2017-12-30T17:49:47.254Z,6.97
2017-12-30T17:52:13.089Z,3.50
2017-12-30T17:54:42.528Z,2.50
2017-12-30T17:57:08.345Z,1.20
2017-12-30T17:59:35.575Z,3.43
2017-12-30T18:02:01.426Z,2.00
2017-12-30T18:04:30.778Z,3.67
2017-12-30T18:06:56.629Z,3.92
2017-12-30T18:09:22.489Z,3.80
2017-12-30T18:11:48.301Z,6.97
2017-12-30T18:14:14.124Z,1.87
2017-12-30T18:16:41.830Z,1.97
2017-12-30T18:19:07.691Z,2.95
2017-12-30T18:21:36.552Z,3.07
2017-12-30T18:24:02.400Z,3.65
2017-12-30T18:26:31.918Z,2.47
2017-12-30T18:28:57.770Z,2.83
2017-12-30T18:31:27.345Z,1.77
2017-12-30T18:33:53.338Z,1.75
2017-12-30T18:36:21.113Z,1.65
2017-12-30T18:38:46.940Z,2.33
2017-12-30T18:41:16.485Z,2.20
2017-12-30T18:43:42.363Z,1.90
2017-12-30T18:46:08.226Z,2.83
2017-12-30T18:48:34.029Z,1.80
2017-12-30T18:50:59.869Z,3.83
2017-12-30T18:53:28.869Z,2.23
2017-12-30T18:55:54.674Z,5.25
2017-12-30T18:58:22.111Z,2.57
2017-12-30T19:00:47.954Z,2.70
2017-12-30T19:03:17.467Z,3.27
2017-12-30T19:05:43.295Z,3.05
2017-12-30T19:08:12.742Z,7.73
2017-12-30T19:10:38.572Z,2.95
2017-12-30T19:13:06.233Z,2.60
2017-12-30T19:15:32.084Z,1.70
2017-12-30T19:18:00.954Z,2.20
2017-12-30T19:20:26.774Z,2.15
2017-12-30T19:22:52.588Z,3.10
2017-12-30T19:25:18.397Z,1.80
2017-12-30T19:27:44.220Z,2.83
2017-12-30T19:30:14.038Z,4.10
2017-12-30T19:32:39.859Z,3.10
2017-12-30T19:35:08.931Z,4.13
2017-12-30T19:37:34.716Z,2.85
2017-12-30T19:40:02.110Z,2.87
2017-12-30T19:42:27.953Z,3.33
2017-12-30T19:44:57.216Z,1.53
2017-12-30T19:47:23.049Z,1.60
2017-12-30T19:49:52.835Z,1.53
2017-12-30T19:52:18.643Z,2.50
2017-12-30T19:54:47.940Z,2.57
2017-12-30T19:57:13.769Z,2.03
2017-12-30T19:59:39.573Z,7.50
2017-12-30T20:02:05.441Z,1.70
2017-12-30T20:04:31.236Z,3.40
2017-12-30T20:06:57.867Z,3.60
2017-12-30T20:09:23.700Z,1.85
2017-12-30T20:11:52.158Z,0.97
2017-12-30T20:14:18.027Z,1.52
2017-12-30T20:19:24.760Z,2.97
2017-12-30T20:21:50.649Z,3.23
2017-12-30T20:24:16.470Z,7.50
2017-12-30T20:26:42.310Z,1.60
2017-12-30T20:29:08.174Z,1.30
2017-12-30T20:31:34.000Z,2.13
2017-12-30T20:33:59.824Z,2.50
2017-12-30T20:36:25.641Z,2.50
2017-12-30T20:38:51.544Z,4.07
2017-12-30T20:41:17.330Z,12.70
2017-12-30T20:43:43.144Z,2.23
2017-12-30T20:46:08.963Z,2.10
2017-12-30T20:48:37.686Z,2.40
2017-12-30T20:51:03.508Z,1.40
2017-12-30T20:53:32.315Z,4.27
2017-12-30T20:55:58.142Z,3.92
2017-12-30T20:58:27.952Z,1.97
2017-12-30T21:00:53.744Z,1.08
2017-12-30T21:03:22.611Z,3.27
2017-12-30T21:05:48.409Z,1.10
2017-12-30T21:08:18.014Z,2.30
2017-12-30T21:10:43.849Z,2.03
2017-12-30T21:13:09.702Z,6.90
2017-12-30T21:15:35.519Z,1.83
2017-12-30T21:18:01.334Z,2.63
2017-12-30T21:20:28.570Z,4.07
2017-12-30T21:22:54.430Z,2.67
2017-12-30T21:25:23.674Z,1.90
2017-12-30T21:27:49.558Z,1.65
2017-12-30T21:30:18.539Z,1.10
2017-12-30T21:32:44.411Z,1.73
2017-12-30T21:35:12.469Z,1.20
2017-12-30T21:37:38.288Z,1.30
2017-12-30T21:40:06.941Z,2.20
2017-12-30T21:42:32.776Z,1.62
2017-12-30T21:47:29.516Z,4.15
2017-12-30T21:49:55.392Z,2.23
2017-12-30T21:52:21.209Z,1.87
2017-12-30T21:54:47.038Z,1.10
2017-12-30T21:57:13.740Z,0.90
2017-12-30T21:59:39.618Z,0.90
2017-12-30T22:02:08.680Z,1.20
2017-12-30T22:04:34.490Z,1.62
2017-12-30T22:07:03.095Z,0.70
2017-12-30T22:09:28.906Z,1.77
2017-12-30T22:11:58.167Z,1.30
2017-12-30T22:14:24.025Z,1.20
2017-12-30T22:16:53.980Z,1.20
2017-12-30T22:19:19.832Z,1.67
2017-12-30T22:21:48.685Z,1.00
2017-12-30T22:24:14.507Z,0.88
2017-12-30T22:26:40.320Z,1.10
2017-12-30T22:29:06.136Z,0.73
2017-12-30T22:31:32.007Z,2.80
2017-12-30T22:33:59.210Z,0.97
2017-12-30T22:36:25.034Z,1.10
2017-12-30T22:38:53.490Z,1.10
2017-12-30T22:41:19.334Z,0.80
2017-12-30T22:46:15.896Z,1.40
2017-12-30T22:48:44.772Z,1.13
2017-12-30T22:51:10.601Z,1.12
2017-12-30T22:53:37.854Z,1.87
2017-12-30T22:56:03.661Z,1.20
2017-12-30T22:58:32.664Z,3.93
2017-12-30T23:01:04.555Z,2.53
2017-12-30T23:03:30.449Z,1.37
2017-12-30T23:05:56.258Z,0.90
2017-12-30T23:08:22.088Z,1.23
2017-12-30T23:10:47.963Z,1.03
2017-12-30T23:13:13.811Z,0.80
2017-12-30T23:15:39.615Z,1.40
2017-12-30T23:18:05.445Z,0.90
2017-12-30T23:20:34.812Z,1.20
2017-12-30T23:23:00.670Z,0.98
2017-12-30T23:25:28.242Z,0.80
2017-12-30T23:27:54.071Z,0.70
2017-12-30T23:30:20.669Z,0.90
2017-12-30T23:32:46.508Z,1.00
2017-12-30T23:35:12.346Z,0.70
2017-12-30T23:37:41.044Z,0.80
2017-12-30T23:40:06.868Z,0.90
2017-12-30T23:42:36.016Z,0.70
2017-12-30T23:45:01.872Z,0.80
2017-12-30T23:47:29.946Z,1.53
2017-12-30T23:49:55.770Z,0.88
2017-12-30T23:52:25.015Z,0.73
2017-12-30T23:54:50.863Z,0.93
2017-12-30T23:57:19.880Z,0.80
2017-12-30T23:59:45.700Z,1.15
